sensor_id;sensor_type;location;lat;lon;timestamp;pressure;altitude;pressure_sealevel;temperature;humidity
73651;BME280;61944;52.538;6.108;2023-04-09T00:02:23;102567.69;;;9.27;100.00
73651;BME280;61944;52.538;6.108;2023-04-09T00:04:51;102556.53;;;9.10;100.00
73651;BME280;61944;52.538;6.108;2023-04-09T00:07:16;102557.69;;;9.18;100.00
73651;BME280;61944;52.538;6.108;2023-04-09T00:09:41;102563.44;;;9.30;100.00
73651;BME280;61944;52.538;6.108;2023-04-09T00:12:07;102564.59;;;9.29;100.00
73651;BME280;61944;52.538;6.108;2023-04-09T00:14:32;102564.94;;;9.45;100.00
73651;BME280;61944;52.538;6.108;2023-04-09T00:16:57;102557.38;;;9.28;100.00
73651;BME280;61944;52.538;6.108;2023-04-09T00:19:23;102564.59;;;9.29;100.00
73651;BME280;61944;52.538;6.108;2023-04-09T00:21:49;102562.47;;;9.26;100.00
73651;BME280;61944;52.538;6.108;2023-04-09T00:24:14;102557.34;;;9.10;100.00
73651;BME280;61944;52.538;6.108;2023-04-09T00:26:40;102554.41;;;9.15;100.00
73651;BME280;61944;52.538;6.108;2023-04-09T00:29:05;102554.53;;;9.10;100.00
73651;BME280;61944;52.538;6.108;2023-04-09T00:31:30;102545.34;;;8.92;100.00
73651;BME280;61944;52.538;6.108;2023-04-09T00:33:57;102541.03;;;8.86;100.00
73651;BME280;61944;52.538;6.108;2023-04-09T00:36:22;102543.53;;;9.05;100.00
73651;BME280;61944;52.538;6.108;2023-04-09T00:38:49;102531.88;;;9.03;100.00
73651;BME280;61944;52.538;6.108;2023-04-09T00:41:16;102539.75;;;9.19;100.00
73651;BME280;61944;52.538;6.108;2023-04-09T00:43:41;102533.19;;;9.14;100.00
73651;BME280;61944;52.538;6.108;2023-04-09T00:46:07;102533.03;;;9.11;100.00
73651;BME280;61944;52.538;6.108;2023-04-09T00:48:32;102530.88;;;8.90;100.00
73651;BME280;61944;52.538;6.108;2023-04-09T00:50:57;102531.38;;;9.01;100.00
73651;BME280;61944;52.538;6.108;2023-04-09T00:53:24;102535.97;;;8.97;100.00
73651;BME280;61944;52.538;6.108;2023-04-09T00:55:49;102530.25;;;9.11;100.00
73651;BME280;61944;52.538;6.108;2023-04-09T00:58:15;102521.69;;;9.07;100.00
73651;BME280;61944;52.538;6.108;2023-04-09T01:00:40;102522.00;;;8.97;100.00
73651;BME280;61944;52.538;6.108;2023-04-09T01:03:06;102534.34;;;9.13;100.00
73651;BME280;61944;52.538;6.108;2023-04-09T01:11:19;102524.78;;;8.80;100.00
73651;BME280;61944;52.538;6.108;2023-04-09T01:14:13;102525.47;;;8.94;100.00
73651;BME280;61944;52.538;6.108;2023-04-09T01:16:47;102524.47;;;8.90;100.00
73651;BME280;61944;52.538;6.108;2023-04-09T01:22:04;102525.28;;;8.90;100.00
73651;BME280;61944;52.538;6.108;2023-04-09T01:27:05;102524.81;;;9.06;100.00
73651;BME280;61944;52.538;6.108;2023-04-09T01:29:33;102516.91;;;9.08;100.00
73651;BME280;61944;52.538;6.108;2023-04-09T01:32:01;102517.22;;;9.06;100.00
73651;BME280;61944;52.538;6.108;2023-04-09T01:34:27;102510.34;;;9.04;100.00
73651;BME280;61944;52.538;6.108;2023-04-09T01:36:55;102511.66;;;9.06;100.00
73651;BME280;61944;52.538;6.108;2023-04-09T01:39:22;102519.72;;;8.99;100.00
73651;BME280;61944;52.538;6.108;2023-04-09T01:41:48;102514.94;;;8.91;100.00
73651;BME280;61944;52.538;6.108;2023-04-09T01:44:15;102509.84;;;8.93;100.00
73651;BME280;61944;52.538;6.108;2023-04-09T01:46:41;102517.03;;;8.85;100.00
73651;BME280;61944;52.538;6.108;2023-04-09T01:49:08;102511.44;;;8.77;100.00
73651;BME280;61944;52.538;6.108;2023-04-09T01:51:35;102508.34;;;8.87;100.00
73651;BME280;61944;52.538;6.108;2023-04-09T01:54:00;102507.22;;;8.88;100.00
73651;BME280;61944;52.538;6.108;2023-04-09T01:56:26;102509.34;;;8.91;100.00
73651;BME280;61944;52.538;6.108;2023-04-09T01:58:51;102505.88;;;8.77;100.00
73651;BME280;61944;52.538;6.108;2023-04-09T02:01:32;102511.31;;;8.90;100.00
73651;BME280;61944;52.538;6.108;2023-04-09T02:04:01;102504.91;;;8.90;100.00
73651;BME280;61944;52.538;6.108;2023-04-09T02:06:57;102505.41;;;8.92;100.00
73651;BME280;61944;52.538;6.108;2023-04-09T02:09:27;102509.69;;;8.98;100.00
73651;BME280;61944;52.538;6.108;2023-04-09T02:11:56;102505.91;;;8.94;100.00
73651;BME280;61944;52.538;6.108;2023-04-09T02:14:24;102500.97;;;8.91;100.00
73651;BME280;61944;52.538;6.108;2023-04-09T02:16:50;102497.16;;;8.78;100.00
73651;BME280;61944;52.538;6.108;2023-04-09T02:19:16;102494.38;;;8.78;100.00
73651;BME280;61944;52.538;6.108;2023-04-09T02:21:41;102501.44;;;8.84;100.00
73651;BME280;61944;52.538;6.108;2023-04-09T02:24:08;102494.19;;;8.74;100.00
73651;BME280;61944;52.538;6.108;2023-04-09T02:26:33;102488.00;;;8.95;100.00
73651;BME280;61944;52.538;6.108;2023-04-09T02:28:59;102488.97;;;8.82;100.00
73651;BME280;61944;52.538;6.108;2023-04-09T02:31:24;102489.97;;;8.86;100.00
73651;BME280;61944;52.538;6.108;2023-04-09T02:33:50;102489.13;;;8.85;100.00
73651;BME280;61944;52.538;6.108;2023-04-09T02:36:15;102489.97;;;8.86;100.00
73651;BME280;61944;52.538;6.108;2023-04-09T02:38:41;102481.59;;;8.77;100.00
73651;BME280;61944;52.538;6.108;2023-04-09T02:41:06;102488.47;;;8.62;100.00
73651;BME280;61944;52.538;6.108;2023-04-09T02:43:32;102479.59;;;8.69;100.00
73651;BME280;61944;52.538;6.108;2023-04-09T02:45:57;102489.78;;;8.82;100.00
73651;BME280;61944;52.538;6.108;2023-04-09T02:48:23;102477.81;;;8.82;100.00
73651;BME280;61944;52.538;6.108;2023-04-09T02:50:48;102486.31;;;8.77;100.00
73651;BME280;61944;52.538;6.108;2023-04-09T02:53:13;102482.41;;;8.78;100.00
73651;BME280;61944;52.538;6.108;2023-04-09T02:55:38;102485.03;;;8.91;100.00
73651;BME280;61944;52.538;6.108;2023-04-09T02:58:04;102478.31;;;8.84;100.00
73651;BME280;61944;52.538;6.108;2023-04-09T03:00:29;102472.38;;;8.85;100.00
73651;BME280;61944;52.538;6.108;2023-04-09T03:02:55;102477.63;;;8.78;100.00
73651;BME280;61944;52.538;6.108;2023-04-09T03:05:20;102481.72;;;8.81;100.00
73651;BME280;61944;52.538;6.108;2023-04-09T03:07:45;102475.00;;;8.73;100.00
73651;BME280;61944;52.538;6.108;2023-04-09T03:10:11;102469.94;;;8.84;100.00
73651;BME280;61944;52.538;6.108;2023-04-09T03:12:36;102475.00;;;8.73;100.00
73651;BME280;61944;52.538;6.108;2023-04-09T03:15:02;102474.03;;;8.86;100.00
73651;BME280;61944;52.538;6.108;2023-04-09T03:17:28;102460.72;;;8.92;100.00
73651;BME280;61944;52.538;6.108;2023-04-09T03:19:56;102470.41;;;8.86;100.00
73651;BME280;61944;52.538;6.108;2023-04-09T03:22:21;102466.47;;;8.69;100.00
73651;BME280;61944;52.538;6.108;2023-04-09T03:24:47;102476.81;;;8.69;100.00
73651;BME280;61944;52.538;6.108;2023-04-09T03:27:12;102466.28;;;8.74;100.00
73651;BME280;61944;52.538;6.108;2023-04-09T03:29:37;102468.56;;;8.72;100.00
73651;BME280;61944;52.538;6.108;2023-04-09T03:32:03;102465.16;;;8.75;100.00
73651;BME280;61944;52.538;6.108;2023-04-09T03:34:28;102461.66;;;8.44;100.00
73651;BME280;61944;52.538;6.108;2023-04-09T03:36:54;102458.50;;;8.45;100.00
73651;BME280;61944;52.538;6.108;2023-04-09T03:39:19;102464.66;;;8.73;100.00
73651;BME280;61944;52.538;6.108;2023-04-09T03:41:45;102455.47;;;8.82;100.00
73651;BME280;61944;52.538;6.108;2023-04-09T03:44:11;102472.53;;;8.89;100.00
73651;BME280;61944;52.538;6.108;2023-04-09T03:46:36;102461.69;;;8.79;100.00
73651;BME280;61944;52.538;6.108;2023-04-09T03:49:01;102464.78;;;8.60;100.00
73651;BME280;61944;52.538;6.108;2023-04-09T03:51:27;102463.13;;;8.50;100.00
73651;BME280;61944;52.538;6.108;2023-04-09T03:53:52;102459.06;;;8.73;100.00
73651;BME280;61944;52.538;6.108;2023-04-09T03:56:17;102458.75;;;8.84;100.00
73651;BME280;61944;52.538;6.108;2023-04-09T03:58:43;102465.16;;;8.75;100.00
73651;BME280;61944;52.538;6.108;2023-04-09T04:01:08;102467.28;;;8.79;100.00
73651;BME280;61944;52.538;6.108;2023-04-09T04:03:33;102455.78;;;8.89;100.00
73651;BME280;61944;52.538;6.108;2023-04-09T04:06:03;102468.13;;;8.79;100.00
73651;BME280;61944;52.538;6.108;2023-04-09T04:08:28;102454.59;;;8.64;100.00
73651;BME280;61944;52.538;6.108;2023-04-09T04:10:54;102454.78;;;8.76;100.00
73651;BME280;61944;52.538;6.108;2023-04-09T04:13:19;102458.56;;;8.63;100.00
73651;BME280;61944;52.538;6.108;2023-04-09T04:15:45;102457.78;;;8.22;100.00
73651;BME280;61944;52.538;6.108;2023-04-09T04:18:10;102450.38;;;8.26;100.00
73651;BME280;61944;52.538;6.108;2023-04-09T04:20:36;102454.91;;;8.45;100.00
73651;BME280;61944;52.538;6.108;2023-04-09T04:23:03;102457.69;;;8.45;100.00
73651;BME280;61944;52.538;6.108;2023-04-09T04:25:28;102461.53;;;8.26;100.00
73651;BME280;61944;52.538;6.108;2023-04-09T04:27:54;102462.09;;;8.37;100.00
73651;BME280;61944;52.538;6.108;2023-04-09T04:30:22;102456.28;;;8.16;100.00
73651;BME280;61944;52.538;6.108;2023-04-09T04:32:48;102453.44;;;8.47;100.00
73651;BME280;61944;52.538;6.108;2023-04-09T04:35:14;102450.00;;;8.50;100.00
73651;BME280;61944;52.538;6.108;2023-04-09T04:37:39;102446.22;;;8.55;100.00
73651;BME280;61944;52.538;6.108;2023-04-09T04:40:05;102456.25;;;8.56;100.00
73651;BME280;61944;52.538;6.108;2023-04-09T04:42:31;102458.56;;;8.54;100.00
73651;BME280;61944;52.538;6.108;2023-04-09T04:44:57;102457.19;;;8.43;100.00
73651;BME280;61944;52.538;6.108;2023-04-09T04:47:22;102464.28;;;8.66;100.00
73651;BME280;61944;52.538;6.108;2023-04-09T04:49:47;102460.63;;;8.40;100.00
73651;BME280;61944;52.538;6.108;2023-04-09T04:52:13;102440.59;;;8.38;100.00
73651;BME280;61944;52.538;6.108;2023-04-09T04:54:38;102454.34;;;8.34;100.00
73651;BME280;61944;52.538;6.108;2023-04-09T04:57:04;102455.84;;;8.40;100.00
73651;BME280;61944;52.538;6.108;2023-04-09T04:59:30;102460.84;;;8.61;100.00
73651;BME280;61944;52.538;6.108;2023-04-09T05:01:55;102461.00;;;8.55;100.00
73651;BME280;61944;52.538;6.108;2023-04-09T05:04:20;102459.88;;;8.57;100.00
73651;BME280;61944;52.538;6.108;2023-04-09T05:06:46;102457.09;;;8.65;100.00
73651;BME280;61944;52.538;6.108;2023-04-09T05:09:11;102458.63;;;8.31;100.00
73651;BME280;61944;52.538;6.108;2023-04-09T05:11:36;102460.84;;;8.43;100.00
73651;BME280;61944;52.538;6.108;2023-04-09T05:14:02;102463.78;;;8.55;100.00
73651;BME280;61944;52.538;6.108;2023-04-09T05:16:27;102454.41;;;8.43;100.00
73651;BME280;61944;52.538;6.108;2023-04-09T05:18:53;102454.28;;;8.65;100.00
73651;BME280;61944;52.538;6.108;2023-04-09T05:21:18;102448.72;;;8.74;100.00
73651;BME280;61944;52.538;6.108;2023-04-09T05:23:43;102453.94;;;8.49;100.00
73651;BME280;61944;52.538;6.108;2023-04-09T05:26:09;102459.50;;;8.49;100.00
73651;BME280;61944;52.538;6.108;2023-04-09T05:28:34;102451.47;;;8.48;100.00
73651;BME280;61944;52.538;6.108;2023-04-09T05:31:00;102454.78;;;8.59;100.00
73651;BME280;61944;52.538;6.108;2023-04-09T05:33:26;102443.94;;;8.66;100.00
73651;BME280;61944;52.538;6.108;2023-04-09T05:35:52;102452.16;;;8.62;100.00
73651;BME280;61944;52.538;6.108;2023-04-09T05:38:17;102454.59;;;8.55;100.00
73651;BME280;61944;52.538;6.108;2023-04-09T05:40:42;102449.69;;;8.61;100.00
73651;BME280;61944;52.538;6.108;2023-04-09T05:43:10;102455.28;;;8.69;100.00
73651;BME280;61944;52.538;6.108;2023-04-09T05:45:35;102459.19;;;8.60;100.00
73651;BME280;61944;52.538;6.108;2023-04-09T05:48:00;102450.59;;;8.39;100.00
73651;BME280;61944;52.538;6.108;2023-04-09T05:50:26;102454.78;;;8.50;100.00
73651;BME280;61944;52.538;6.108;2023-04-09T05:52:51;102447.31;;;8.37;100.00
73651;BME280;61944;52.538;6.108;2023-04-09T05:55:16;102458.22;;;8.64;100.00
73651;BME280;61944;52.538;6.108;2023-04-09T05:57:42;102446.03;;;8.51;100.00
73651;BME280;61944;52.538;6.108;2023-04-09T06:00:10;102457.97;;;8.34;100.00
73651;BME280;61944;52.538;6.108;2023-04-09T06:02:35;102450.56;;;8.30;100.00
73651;BME280;61944;52.538;6.108;2023-04-09T06:05:00;102469.56;;;8.59;100.00
73651;BME280;61944;52.538;6.108;2023-04-09T06:07:26;102457.69;;;8.45;100.00
73651;BME280;61944;52.538;6.108;2023-04-09T06:09:51;102459.06;;;8.56;100.00
73651;BME280;61944;52.538;6.108;2023-04-09T06:12:16;102456.22;;;8.47;100.00
73651;BME280;61944;52.538;6.108;2023-04-09T06:14:42;102480.38;;;8.52;100.00
73651;BME280;61944;52.538;6.108;2023-04-09T06:17:07;102472.50;;;8.54;100.00
73651;BME280;61944;52.538;6.108;2023-04-09T06:19:32;102463.97;;;8.59;100.00
73651;BME280;61944;52.538;6.108;2023-04-09T06:21:58;102458.66;;;8.40;100.00
73651;BME280;61944;52.538;6.108;2023-04-09T06:24:23;102462.66;;;8.48;100.00
73651;BME280;61944;52.538;6.108;2023-04-09T06:26:48;102468.50;;;8.38;100.00
73651;BME280;61944;52.538;6.108;2023-04-09T06:29:14;102465.75;;;8.46;100.00
73651;BME280;61944;52.538;6.108;2023-04-09T06:31:40;102467.56;;;8.51;100.00
73651;BME280;61944;52.538;6.108;2023-04-09T06:34:06;102459.69;;;8.53;100.00
73651;BME280;61944;52.538;6.108;2023-04-09T06:36:32;102462.84;;;8.60;100.00
73651;BME280;61944;52.538;6.108;2023-04-09T06:38:57;102456.41;;;8.68;100.00
73651;BME280;61944;52.538;6.108;2023-04-09T06:41:23;102462.84;;;8.69;100.00
73651;BME280;61944;52.538;6.108;2023-04-09T06:43:49;102467.13;;;8.75;100.00
73651;BME280;61944;52.538;6.108;2023-04-09T06:46:14;102463.16;;;8.59;100.00
73651;BME280;61944;52.538;6.108;2023-04-09T06:48:42;102472.97;;;8.47;100.00
73651;BME280;61944;52.538;6.108;2023-04-09T06:51:09;102464.09;;;8.45;100.00
73651;BME280;61944;52.538;6.108;2023-04-09T06:53:36;102476.63;;;8.65;100.00
73651;BME280;61944;52.538;6.108;2023-04-09T06:56:01;102470.66;;;8.49;100.00
73651;BME280;61944;52.538;6.108;2023-04-09T06:58:27;102480.22;;;8.57;100.00
73651;BME280;61944;52.538;6.108;2023-04-09T07:00:52;102477.75;;;8.64;100.00
73651;BME280;61944;52.538;6.108;2023-04-09T07:03:18;102475.47;;;8.66;100.00
73651;BME280;61944;52.538;6.108;2023-04-09T07:05:43;102472.53;;;8.63;100.00
73651;BME280;61944;52.538;6.108;2023-04-09T07:08:08;102471.53;;;8.67;100.00
73651;BME280;61944;52.538;6.108;2023-04-09T07:10:34;102474.34;;;8.76;100.00
73651;BME280;61944;52.538;6.108;2023-04-09T07:13:00;102482.53;;;8.72;100.00
73651;BME280;61944;52.538;6.108;2023-04-09T07:15:25;102477.13;;;8.67;100.00
73651;BME280;61944;52.538;6.108;2023-04-09T07:17:51;102484.53;;;8.81;100.00
73651;BME280;61944;52.538;6.108;2023-04-09T07:20:16;102479.09;;;8.75;100.00
73651;BME280;61944;52.538;6.108;2023-04-09T07:22:41;102489.63;;;8.79;100.00
73651;BME280;61944;52.538;6.108;2023-04-09T07:25:07;102494.38;;;8.87;100.00
73651;BME280;61944;52.538;6.108;2023-04-09T07:27:32;102496.53;;;8.90;100.00
73651;BME280;61944;52.538;6.108;2023-04-09T07:29:58;102496.19;;;9.00;100.00
73651;BME280;61944;52.538;6.108;2023-04-09T07:32:24;102495.72;;;8.98;100.00
73651;BME280;61944;52.538;6.108;2023-04-09T07:34:52;102489.78;;;9.08;100.00
73651;BME280;61944;52.538;6.108;2023-04-09T07:37:18;102493.44;;;9.09;100.00
73651;BME280;61944;52.538;6.108;2023-04-09T07:39:45;102493.56;;;9.12;100.00
73651;BME280;61944;52.538;6.108;2023-04-09T07:42:11;102495.41;;;9.17;100.00
73651;BME280;61944;52.538;6.108;2023-04-09T07:44:36;102487.03;;;9.17;100.00
73651;BME280;61944;52.538;6.108;2023-04-09T07:47:03;102483.25;;;9.13;100.00
73651;BME280;61944;52.538;6.108;2023-04-09T07:49:29;102485.38;;;9.16;100.00
73651;BME280;61944;52.538;6.108;2023-04-09T07:51:55;102490.13;;;9.24;100.00
73651;BME280;61944;52.538;6.108;2023-04-09T07:54:20;102481.75;;;9.33;100.00
73651;BME280;61944;52.538;6.108;2023-04-09T07:56:46;102481.41;;;9.43;100.00
73651;BME280;61944;52.538;6.108;2023-04-09T07:59:12;102467.91;;;9.45;100.00
73651;BME280;61944;52.538;6.108;2023-04-09T08:01:39;102482.19;;;9.52;100.00
73651;BME280;61944;52.538;6.108;2023-04-09T08:04:05;102492.06;;;9.50;100.00
73651;BME280;61944;52.538;6.108;2023-04-09T08:06:30;102482.53;;;9.42;100.00
73651;BME280;61944;52.538;6.108;2023-04-09T08:08:56;102485.19;;;9.39;100.00
73651;BME280;61944;52.538;6.108;2023-04-09T08:11:21;102484.72;;;9.36;100.00
73651;BME280;61944;52.538;6.108;2023-04-09T08:13:52;102499.97;;;9.56;100.00
73651;BME280;61944;52.538;6.108;2023-04-09T08:16:18;102501.63;;;9.57;100.00
73651;BME280;61944;52.538;6.108;2023-04-09T08:18:45;102495.97;;;9.75;100.00
73651;BME280;61944;52.538;6.108;2023-04-09T08:21:10;102497.44;;;9.81;100.00
73651;BME280;61944;52.538;6.108;2023-04-09T08:23:36;102489.31;;;9.97;100.00
73651;BME280;61944;52.538;6.108;2023-04-09T08:26:02;102487.50;;;10.10;100.00
73651;BME280;61944;52.538;6.108;2023-04-09T08:28:27;102489.31;;;10.06;100.00
73651;BME280;61944;52.538;6.108;2023-04-09T08:30:52;102491.31;;;9.96;100.00
73651;BME280;61944;52.538;6.108;2023-04-09T08:33:18;102483.56;;;10.02;100.00
73651;BME280;61944;52.538;6.108;2023-04-09T08:35:43;102479.25;;;10.05;100.00
73651;BME280;61944;52.538;6.108;2023-04-09T08:38:09;102480.69;;;10.20;100.00
73651;BME280;61944;52.538;6.108;2023-04-09T08:40:35;102474.50;;;10.44;100.00
73651;BME280;61944;52.538;6.108;2023-04-09T08:43:04;102478.69;;;10.29;100.00
73651;BME280;61944;52.538;6.108;2023-04-09T08:45:31;102476.72;;;10.59;100.00
73651;BME280;61944;52.538;6.108;2023-04-09T08:47:56;102482.59;;;10.66;100.00
73651;BME280;61944;52.538;6.108;2023-04-09T08:50:27;102490.50;;;10.64;100.00
73651;BME280;61944;52.538;6.108;2023-04-09T08:52:53;102481.03;;;10.56;100.00
73651;BME280;61944;52.538;6.108;2023-04-09T08:55:21;102478.91;;;10.74;100.00
73651;BME280;61944;52.538;6.108;2023-04-09T08:57:46;102483.16;;;10.81;100.00
73651;BME280;61944;52.538;6.108;2023-04-09T09:00:12;102484.13;;;10.85;100.00
73651;BME280;61944;52.538;6.108;2023-04-09T09:02:37;102474.00;;;10.71;100.00
73651;BME280;61944;52.538;6.108;2023-04-09T09:05:04;102479.41;;;10.97;100.00
73651;BME280;61944;52.538;6.108;2023-04-09T09:07:31;102477.28;;;11.15;100.00
73651;BME280;61944;52.538;6.108;2023-04-09T09:10:00;102480.56;;;11.17;100.00
73651;BME280;61944;52.538;6.108;2023-04-09T09:14:58;102469.84;;;10.98;98.36
73651;BME280;61944;52.538;6.108;2023-04-09T09:17:23;102469.00;;;10.98;100.00
73651;BME280;61944;52.538;6.108;2023-04-09T09:19:49;102457.50;;;11.33;98.90
73651;BME280;61944;52.538;6.108;2023-04-09T09:22:14;102469.28;;;11.72;94.47
73651;BME280;61944;52.538;6.108;2023-04-09T09:24:47;102468.06;;;11.48;94.94
73651;BME280;61944;52.538;6.108;2023-04-09T09:27:34;102468.06;;;11.48;92.87
73651;BME280;61944;52.538;6.108;2023-04-09T09:30:02;102458.03;;;11.47;96.05
73651;BME280;61944;52.538;6.108;2023-04-09T09:32:29;102462.84;;;11.59;97.80
73651;BME280;61944;52.538;6.108;2023-04-09T09:35:12;102462.47;;;11.48;89.24
73651;BME280;61944;52.538;6.108;2023-04-09T09:37:38;102459.09;;;11.88;90.58
73651;BME280;61944;52.538;6.108;2023-04-09T09:40:04;102456.94;;;11.73;91.29
73651;BME280;61944;52.538;6.108;2023-04-09T09:42:29;102464.97;;;11.95;90.47
73651;BME280;61944;52.538;6.108;2023-04-09T09:44:57;102448.00;;;12.04;88.04
73651;BME280;61944;52.538;6.108;2023-04-09T09:47:23;102461.69;;;11.93;89.97
73651;BME280;61944;52.538;6.108;2023-04-09T09:49:50;102461.69;;;12.18;89.94
73651;BME280;61944;52.538;6.108;2023-04-09T09:52:23;102450.22;;;12.23;87.73
73651;BME280;61944;52.538;6.108;2023-04-09T09:54:50;102447.53;;;12.27;95.49
73651;BME280;61944;52.538;6.108;2023-04-09T09:57:18;102455.81;;;12.48;86.35
73651;BME280;61944;52.538;6.108;2023-04-09T09:59:58;102445.63;;;12.55;88.47
73651;BME280;61944;52.538;6.108;2023-04-09T10:02:26;102455.78;;;12.72;87.27
73651;BME280;61944;52.538;6.108;2023-04-09T10:04:56;102453.94;;;12.64;88.40
73651;BME280;61944;52.538;6.108;2023-04-09T10:07:24;102438.19;;;12.88;87.24
73651;BME280;61944;52.538;6.108;2023-04-09T10:09:52;102439.38;;;12.87;89.00
73651;BME280;61944;52.538;6.108;2023-04-09T10:12:20;102441.00;;;12.75;86.41
73651;BME280;61944;52.538;6.108;2023-04-09T10:14:48;102423.66;;;12.86;84.97
73651;BME280;61944;52.538;6.108;2023-04-09T10:17:15;102433.56;;;13.08;85.31
73651;BME280;61944;52.538;6.108;2023-04-09T10:19:48;102430.66;;;13.32;85.74
73651;BME280;61944;52.538;6.108;2023-04-09T10:22:17;102431.69;;;13.28;83.99
73651;BME280;61944;52.538;6.108;2023-04-09T10:24:47;102424.03;;;13.40;84.81
73651;BME280;61944;52.538;6.108;2023-04-09T10:27:15;102427.00;;;13.76;84.64
73651;BME280;61944;52.538;6.108;2023-04-09T10:29:45;102417.63;;;13.40;82.41
73651;BME280;61944;52.538;6.108;2023-04-09T10:32:11;102418.09;;;13.58;84.75
73651;BME280;61944;52.538;6.108;2023-04-09T10:34:38;102407.19;;;13.12;83.56
73651;BME280;61944;52.538;6.108;2023-04-09T10:37:06;102419.47;;;13.64;89.01
73651;BME280;61944;52.538;6.108;2023-04-09T10:39:32;102412.53;;;13.17;85.93
73651;BME280;61944;52.538;6.108;2023-04-09T10:42:07;102415.06;;;13.35;86.46
73651;BME280;61944;52.538;6.108;2023-04-09T10:44:38;102407.81;;;13.21;90.65
73651;BME280;61944;52.538;6.108;2023-04-09T10:47:06;102414.84;;;14.03;92.50
73651;BME280;61944;52.538;6.108;2023-04-09T10:49:37;102414.63;;;14.12;80.41
73651;BME280;61944;52.538;6.108;2023-04-09T10:59:44;102387.75;;;14.50;76.96
73651;BME280;61944;52.538;6.108;2023-04-09T11:05:28;102405.84;;;15.04;76.49
73651;BME280;61944;52.538;6.108;2023-04-09T11:08:10;102402.38;;;14.91;72.54
73651;BME280;61944;52.538;6.108;2023-04-09T11:10:37;102389.31;;;14.63;72.55
73651;BME280;61944;52.538;6.108;2023-04-09T11:13:03;102387.38;;;14.32;73.74
73651;BME280;61944;52.538;6.108;2023-04-09T11:15:30;102382.41;;;14.10;74.47
73651;BME280;61944;52.538;6.108;2023-04-09T11:17:56;102370.69;;;14.08;75.13
73651;BME280;61944;52.538;6.108;2023-04-09T11:20:23;102363.03;;;14.59;73.45
73651;BME280;61944;52.538;6.108;2023-04-09T11:22:50;102373.41;;;14.20;73.19
73651;BME280;61944;52.538;6.108;2023-04-09T11:25:23;102363.84;;;14.24;75.80
73651;BME280;61944;52.538;6.108;2023-04-09T11:27:49;102375.56;;;14.81;72.55
73651;BME280;61944;52.538;6.108;2023-04-09T11:30:15;102361.63;;;14.69;70.87
73651;BME280;61944;52.538;6.108;2023-04-09T11:32:40;102363.41;;;14.58;71.40
73651;BME280;61944;52.538;6.108;2023-04-09T11:35:24;102356.00;;;14.69;70.24
73651;BME280;61944;52.538;6.108;2023-04-09T11:37:50;102358.00;;;14.88;70.20
73651;BME280;61944;52.538;6.108;2023-04-09T11:40:18;102358.81;;;14.89;69.37
73651;BME280;61944;52.538;6.108;2023-04-09T11:42:47;102359.56;;;14.66;68.57
73651;BME280;61944;52.538;6.108;2023-04-09T11:45:14;102362.03;;;14.52;69.69
73651;BME280;61944;52.538;6.108;2023-04-09T11:47:40;102362.53;;;14.73;68.23
73651;BME280;61944;52.538;6.108;2023-04-09T11:50:07;102350.25;;;15.04;74.05
73651;BME280;61944;52.538;6.108;2023-04-09T11:52:33;102353.00;;;14.42;70.80
73651;BME280;61944;52.538;6.108;2023-04-09T11:55:04;102363.56;;;14.30;73.56
73651;BME280;61944;52.538;6.108;2023-04-09T11:57:45;102354.41;;;15.11;84.62
73651;BME280;61944;52.538;6.108;2023-04-09T12:00:15;102345.72;;;14.41;66.62
73651;BME280;61944;52.538;6.108;2023-04-09T12:02:44;102355.13;;;14.84;69.12
73651;BME280;61944;52.538;6.108;2023-04-09T12:05:25;102349.25;;;15.59;65.48
73651;BME280;61944;52.538;6.108;2023-04-09T12:07:56;102344.06;;;15.84;64.16
73651;BME280;61944;52.538;6.108;2023-04-09T12:10:26;102345.03;;;16.22;61.96
73651;BME280;61944;52.538;6.108;2023-04-09T12:12:52;102334.06;;;15.90;62.88
73651;BME280;61944;52.538;6.108;2023-04-09T12:15:20;102343.06;;;15.99;62.56
73651;BME280;61944;52.538;6.108;2023-04-09T12:17:50;102340.28;;;16.60;60.10
73651;BME280;61944;52.538;6.108;2023-04-09T12:20:32;102347.41;;;16.20;60.81
73651;BME280;61944;52.538;6.108;2023-04-09T12:22:59;102350.22;;;16.46;61.75
73651;BME280;61944;52.538;6.108;2023-04-09T12:25:26;102347.88;;;16.82;60.17
73651;BME280;61944;52.538;6.108;2023-04-09T12:27:51;102349.78;;;16.75;59.59
73651;BME280;61944;52.538;6.108;2023-04-09T12:30:20;102352.13;;;16.99;58.89
73651;BME280;61944;52.538;6.108;2023-04-09T12:32:45;102344.06;;;16.71;59.24
73651;BME280;61944;52.538;6.108;2023-04-09T12:35:12;102345.72;;;16.76;57.56
73651;BME280;61944;52.538;6.108;2023-04-09T12:37:38;102342.53;;;16.77;58.47
73651;BME280;61944;52.538;6.108;2023-04-09T12:40:04;102327.56;;;16.43;58.85
73651;BME280;61944;52.538;6.108;2023-04-09T12:42:29;102333.56;;;16.72;57.44
73651;BME280;61944;52.538;6.108;2023-04-09T12:44:55;102326.56;;;16.28;59.34
73651;BME280;61944;52.538;6.108;2023-04-09T12:47:20;102324.47;;;16.25;59.83
73651;BME280;61944;52.538;6.108;2023-04-09T12:49:45;102319.91;;;16.17;59.74
73651;BME280;61944;52.538;6.108;2023-04-09T12:52:14;102315.56;;;16.23;66.79
73651;BME280;61944;52.538;6.108;2023-04-09T12:54:39;102329.50;;;16.69;72.78
73651;BME280;61944;52.538;6.108;2023-04-09T12:57:05;102328.75;;;16.72;65.17
73651;BME280;61944;52.538;6.108;2023-04-09T12:59:31;102320.25;;;16.38;59.24
73651;BME280;61944;52.538;6.108;2023-04-09T13:01:56;102325.53;;;16.43;61.37
73651;BME280;61944;52.538;6.108;2023-04-09T13:04:21;102318.81;;;15.95;61.28
73651;BME280;61944;52.538;6.108;2023-04-09T13:06:47;102311.19;;;15.99;59.85
73651;BME280;61944;52.538;6.108;2023-04-09T13:09:12;102313.81;;;16.41;57.97
73651;BME280;61944;52.538;6.108;2023-04-09T13:11:38;102313.66;;;16.31;56.51
73651;BME280;61944;52.538;6.108;2023-04-09T13:14:03;102322.66;;;17.04;55.94